Latest Weather Observations for TFS F (Fingal)

IDT60801

Issued at 1:51 am EST Friday 19 August 2022 (issued every 10 minutes, with the page automatically refreshed every 10 minutes)

About weather observations | Map of weather stations | Latest weather observations for TAS | Other Formats
Station Details ID: 250142 Name: PORTABLE TAS AWS 6 (TFS) Lat: -41.60 Lon: 148.06 Height: 253.0 m

Portable automatic weather stations (PAWS) are operated by other organisations, such as Fire and Emergency Services, and are included here by agreement. Portable stations may be deployed to a location for a short period and their location may be subject to change without notice. Wind observations from these stations are provided from heights of either three (3) or ten (10) metres above ground level (AGL).

Data from the previous 72 hours. | See also: Recent months for locations in Tasmania
Date/Time
EST
Temp
°C
App
Temp
°C
Dew
Point
°C
Rel
Hum
%
Delta-T
°C
Wind Press
QNH
hPa
Press
MSL
hPa
Rain since
9am
mm
Dir  Spd
km/h
Gust
km/h
Spd
kts
Gust
kts
19/12:50am 8.1 5.2 2.4 67 2.4 NW 7 13 4 7 973.0 - 0.2
19/12:40am 8.1 5.2 2.6 68 2.3 WNW 7 11 4 6 973.2 - 0.2
19/12:30am 8.2 3.4 2.4 67 2.5 NNW 17 19 9 10 973.2 - 0.2
19/12:10am 8.5 3.6 2.1 64 2.7 N 17 20 9 11 973.1 - 0.2
19/12:00am 8.7 3.5 2.2 63 2.8 N 19 20 10 11 973.2 - 0.2
 
Date/Time
EST
Temp
°C
App
Temp
°C
Dew
Point
°C
Rel
Hum
%
Delta-T
°C
Wind Press
QNH
hPa
Press
MSL
hPa
Rain since
9am
mm
Dir  Spd
km/h
Gust
km/h
Spd
kts
Gust
kts
18/11:50pm 8.8 4.7 2.4 64 2.7 NNW 13 17 7 9 973.2 - 0.2
18/11:40pm 9.5 6.6 1.7 58 3.3 NNW 6 11 3 6 973.2 - 0.2
18/11:30pm 9.7 6.3 1.9 58 3.3 NW 9 13 5 7 973.2 - 0.2
18/11:20pm 9.9 6.9 2.2 59 3.3 W 7 11 4 6 973.1 - 0.2
18/11:10pm 9.9 6.6 2.6 60 3.2 WNW 9 17 5 9 973.2 - 0.2
18/11:00pm 9.8 5.4 2.5 60 3.2 NW 15 19 8 10 972.9 - 0.2
18/10:50pm 9.7 5.7 3.1 63 2.9 N 13 19 7 10 972.7 - 0.2
18/10:40pm 9.9 6.0 3.2 63 2.9 NNW 13 17 7 9 972.8 - 0.2
18/10:30pm 9.9 5.5 2.5 60 3.2 NNW 15 22 8 12 972.8 - 0.2
18/10:20pm 9.6 5.7 3.3 65 2.8 NNW 13 15 7 8 972.6 - 0.2
18/10:10pm 9.7 7.1 3.4 65 2.8 NW 6 13 3 7 972.6 - 0.2
18/10:00pm 10.2 7.4 3.1 61 3.1 NW 7 11 4 6 972.6 - 0.2
18/09:50pm 10.5 6.5 2.9 59 3.3 W 13 17 7 9 972.6 - 0.2
18/09:40pm 10.5 7.6 2.5 57 3.5 W 7 19 4 10 972.5 - 0.2
18/09:30pm 10.5 7.8 2.7 58 3.4 WNW 6 7 3 4 972.2 - 0.2
18/09:20pm 10.5 7.3 2.9 59 3.3 W 9 13 5 7 972.2 - 0.2
18/09:10pm 10.7 7.1 3.1 59 3.4 W 11 15 6 8 972.2 - 0.2
18/09:00pm 10.3 7.6 3.7 63 2.9 W 7 11 4 6 972.3 - 0.2
18/08:50pm 10.4 7.7 3.7 63 3.0 W 7 9 4 5 972.1 - 0.2
18/08:40pm 10.5 7.9 4.2 65 2.8 W 7 9 4 5 972.1 - 0.2
18/08:30pm 10.6 8.2 4.4 65 2.8 W 6 7 3 4 972.1 - 0.2
18/08:20pm 10.5 8.0 4.9 68 2.6 WNW 7 11 4 6 971.9 - 0.2
18/08:10pm 10.6 8.3 5.6 71 2.3 W 7 11 4 6 971.7 - 0.2
18/08:00pm 10.8 8.4 5.1 68 2.6 W 7 13 4 7 971.5 - 0.2
18/07:50pm 11.1 8.1 5.8 70 2.5 W 11 17 6 9 971.6 - 0.2
18/07:40pm 11.1 8.1 5.8 70 2.5 W 11 15 6 8 971.5 - 0.2
18/07:30pm 10.9 8.2 5.8 71 2.4 W 9 11 5 6 971.6 - 0.2
18/07:20pm 10.7 8.0 5.8 72 2.3 WSW 9 13 5 7 971.3 - 0.2
18/07:10pm 10.4 8.2 6.2 75 2.0 SW 7 11 4 6 971.2 - 0.2
18/07:00pm 10.1 8.0 6.5 78 1.7 SSW 7 9 4 5 970.8 - 0.2
18/06:50pm 10.0 8.0 6.9 81 1.5 SSW 7 11 4 6 970.7 - 0.2
18/06:40pm 10.3 8.2 6.7 78 1.7 SW 7 11 4 6 970.6 - 0.2
18/06:30pm 10.6 8.2 6.8 77 1.8 W 9 11 5 6 970.4 - 0.2
18/06:20pm 10.7 8.7 6.9 77 1.8 W 7 9 4 5 970.4 - 0.2
18/06:10pm 11.0 8.6 6.9 76 2.0 W 9 11 5 6 970.1 - 0.2
18/06:00pm 11.4 7.8 6.7 73 2.3 WNW 15 20 8 11 969.9 - 0.2
18/05:50pm 11.3 8.0 6.6 73 2.3 NW 13 19 7 10 969.6 - 0.2
18/05:40pm 11.4 7.4 6.5 72 2.3 NW 17 28 9 15 969.5 - 0.2
18/05:30pm 11.4 7.8 6.9 74 2.2 NNW 15 22 8 12 969.4 - 0.2
18/05:20pm 12.0 7.0 6.3 68 2.7 NW 22 28 12 15 969.2 - 0.2
18/05:10pm 12.1 7.0 6.2 67 2.8 NW 22 28 12 15 968.9 - 0.2
18/05:00pm 11.9 7.5 6.4 69 2.6 NW 19 24 10 13 968.7 - 0.2
18/04:50pm 11.9 7.1 7.2 73 2.3 NNW 22 26 12 14 968.4 - 0.2
18/04:40pm 12.4 6.2 6.3 66 2.9 NW 28 32 15 17 968.3 - 0.2
18/04:30pm 12.0 6.7 7.0 71 2.4 NNW 24 30 13 16 968.2 - 0.2
18/04:20pm 12.7 7.4 6.9 68 2.8 NW 24 33 13 18 968.2 - 0.2
18/04:10pm 12.7 7.8 6.7 67 2.9 NW 22 26 12 14 968.1 - 0.2
18/04:00pm 12.8 7.2 7.0 68 2.8 NW 26 32 14 17 968.1 - 0.2
18/03:50pm 13.2 6.9 7.2 67 3.0 NW 30 37 16 20 968.1 - 0.2
18/03:40pm 13.0 7.9 7.6 70 2.7 NW 24 33 13 18 968.2 - 0.2
18/03:30pm 12.8 8.9 8.6 75 2.1 NW 19 28 10 15 968.1 - 0.2
18/03:20pm 12.1 7.7 8.8 80 1.7 NW 22 32 12 17 968.3 - 0.2
18/03:10pm 11.6 5.6 8.7 82 1.5 NW 30 33 16 18 968.3 - 0.2
18/03:00pm 11.8 6.2 8.6 81 1.6 NW 28 30 15 16 968.0 - 0.2
18/02:50pm 12.0 5.6 8.4 78 1.8 NW 32 35 17 19 967.9 - 0.2
18/02:40pm 12.4 6.0 8.4 76 2.0 NW 32 35 17 19 967.8 - 0.2
18/02:30pm 12.6 5.9 8.0 73 2.3 NW 33 39 18 21 967.9 - 0.2
18/02:20pm 12.7 6.5 8.0 73 2.3 NW 30 35 16 19 967.9 - 0.2
18/02:10pm 12.7 6.5 7.9 72 2.4 NNW 30 37 16 20 967.9 - 0.2
18/02:00pm 12.8 6.0 7.9 72 2.4 NNW 33 37 18 20 968.0 - 0.2
18/01:50pm 12.9 6.8 8.1 72 2.4 NW 30 33 16 18 968.0 - 0.2
18/01:40pm 12.9 7.2 8.5 74 2.2 NNW 28 35 15 19 967.9 - 0.2
18/01:30pm 12.6 7.0 8.7 77 2.0 NNW 28 32 15 17 968.1 - 0.2
18/01:20pm 12.3 6.0 8.8 79 1.8 NNW 32 35 17 19 967.9 - 0.2
18/01:10pm 12.1 5.7 9.3 83 1.4 NNW 33 43 18 23 968.1 - 0.2
18/01:00pm 12.5 5.7 9.3 81 1.6 NNW 35 43 19 23 968.2 - 0.2
18/12:50pm 12.8 6.6 9.4 80 1.7 NNW 32 37 17 20 968.6 - 0.2
18/12:40pm 12.4 6.5 9.1 80 1.7 NNW 30 33 16 18 968.7 - 0.2
18/12:30pm 12.1 7.5 9.5 84 1.3 NNW 24 39 13 21 968.7 - 0.2
18/12:20pm 12.2 8.1 10.0 86 1.1 NW 22 30 12 16 968.9 - 0.0
18/12:10pm 12.0 7.7 9.4 84 1.3 NNW 22 26 12 14 969.1 - 0.0
18/12:00pm 12.4 6.2 9.4 82 1.5 NNW 32 43 17 23 969.1 - 0.0
18/11:50am 12.6 7.0 8.9 78 1.9 NNW 28 35 15 19 969.3 - 0.0
18/11:40am 12.8 6.9 8.9 77 2.0 NNW 30 35 16 19 969.6 - 0.0
18/11:30am 12.7 7.2 9.0 78 1.9 NNW 28 30 15 16 969.9 - 0.0
18/11:20am 12.8 6.4 9.2 79 1.8 NW 33 39 18 21 970.0 - 0.0
18/11:10am 12.9 6.5 9.2 78 1.9 NW 33 35 18 19 970.0 - 0.0
18/11:00am 12.5 5.4 9.4 81 1.6 NW 37 39 20 21 970.0 - 0.0
18/10:50am 12.6 5.0 9.2 80 1.7 NW 39 50 21 27 970.4 - 0.0
18/10:40am 12.6 5.6 8.6 76 2.0 NW 35 39 19 21 970.2 - 0.0
18/10:30am 12.4 5.5 8.7 78 1.9 NW 35 41 19 22 970.2 - 0.0
18/10:20am 12.5 5.8 8.3 75 2.1 NW 33 41 18 22 969.9 - 0.0
18/10:10am 13.2 6.9 8.8 74 2.2 NW 32 39 17 21 970.3 - 0.0
18/10:00am 12.9 5.6 8.8 76 2.1 NW 37 39 20 21 970.5 - 0.0
18/09:50am 12.8 6.1 8.2 73 2.3 NW 33 39 18 21 970.6 - 0.0
18/09:40am 12.7 6.2 8.3 74 2.2 NW 32 43 17 23 970.8 - 0.0
18/09:30am 13.3 8.8 8.5 72 2.4 NW 22 28 12 15 971.2 - 0.0
18/09:20am 13.4 9.3 8.7 73 2.4 WNW 20 28 11 15 971.2 - 0.0
18/09:10am 12.7 9.1 8.3 74 2.2 NW 17 24 9 13 971.1 - 0.0
18/09:00am 12.4 8.7 7.8 73 2.3 NW 17 22 9 12 971.2 - 0.0
18/08:50am 12.2 10.3 7.4 72 2.4 N 7 13 4 7 971.3 - 0.0
18/08:40am 11.9 9.3 7.9 76 2.0 NNW 11 19 6 10 971.7 - 0.0
18/08:30am 11.8 8.9 8.2 78 1.8 NNW 13 19 7 10 972.1 - 0.0
18/08:20am 11.7 9.2 8.1 78 1.8 N 11 15 6 8 972.0 - 0.0
18/08:10am 11.7 10.9 8.1 78 1.8 N 2 6 1 3 972.0 - 0.0
18/08:00am 11.7 10.1 8.0 78 1.8 N 6 9 3 5 972.2 - 0.0
18/07:50am 11.9 9.0 8.0 77 1.9 NNW 13 19 7 10 972.4 - 0.0
18/07:40am 12.0 9.0 7.8 75 2.1 NNW 13 19 7 10 972.5 - 0.0
18/07:30am 12.1 8.3 7.6 74 2.2 NW 17 17 9 9 972.7 - 0.0
18/07:20am 11.9 8.5 7.6 75 2.1 NW 15 22 8 12 972.3 - 0.0
18/07:10am 11.9 10.0 7.4 74 2.2 WNW 7 13 4 7 972.2 - 0.0
18/07:00am 11.8 8.8 7.6 75 2.1 WNW 13 17 7 9 972.4 - 0.0
18/06:50am 11.8 8.7 7.3 74 2.2 NW 13 17 7 9 972.4 - 0.0
18/06:40am 11.8 8.3 7.3 74 2.2 WNW 15 19 8 10 972.5 - 0.0
18/06:30am 11.8 8.0 7.4 74 2.2 NW 17 20 9 11 972.6 - 0.0
18/06:20am 11.7 7.3 7.4 75 2.1 NW 20 24 11 13 972.8 - 0.0
18/06:10am 11.5 8.0 7.3 75 2.0 WNW 15 22 8 12 972.6 - 0.0
18/06:00am 11.3 7.8 7.4 77 1.9 WNW 15 20 8 11 972.7 - 0.0
18/05:50am 11.3 8.2 7.3 76 1.9 WNW 13 15 7 8 972.6 - 0.0
18/05:40am 11.4 7.5 7.2 75 2.0 NW 17 20 9 11 972.9 - 0.0
18/05:30am 11.3 7.4 7.2 76 2.0 NW 17 20 9 11 973.1 - 0.0
18/05:20am 11.3 6.9 7.2 76 2.0 NW 20 24 11 13 973.1 - 0.0
18/05:10am 11.4 7.1 7.1 75 2.1 NW 19 24 10 13 973.3 - 0.0
18/05:00am 11.4 7.1 6.8 73 2.2 NW 19 26 10 14 973.3 - 0.0
18/04:50am 11.4 6.8 6.7 73 2.3 NNW 20 28 11 15 973.2 - 0.0
18/04:40am 11.3 6.9 6.7 73 2.2 NNW 19 22 10 12 973.3 - 0.0
18/04:30am 11.3 7.2 6.4 72 2.3 NNW 17 19 9 10 973.6 - 0.0
18/04:20am 11.3 7.2 6.4 72 2.3 NNW 17 19 9 10 973.9 - 0.0
18/04:10am 11.2 7.5 6.3 72 2.3 NNW 15 19 8 10 974.0 - 0.0
18/04:00am 11.0 7.3 6.3 73 2.2 NW 15 17 8 9 974.0 - 0.0
18/03:50am 11.0 7.6 6.1 72 2.3 NW 13 15 7 8 974.2 - 0.0
18/03:40am 11.1 8.1 6.2 72 2.3 NW 11 19 6 10 974.1 - 0.0
18/03:30am 11.1 8.6 6.5 73 2.2 NW 9 13 5 7 974.5 - 0.0
18/03:20am 11.6 7.9 6.5 71 2.4 WNW 15 22 8 12 974.8 - 0.0
18/03:10am 11.7 7.9 5.9 67 2.7 WNW 15 19 8 10 974.9 - 0.0
18/03:00am 11.6 8.2 6.1 69 2.6 WNW 13 15 7 8 975.1 - 0.0
18/02:50am 11.6 8.2 5.9 68 2.7 WNW 13 19 7 10 975.2 - 0.0
18/02:40am 11.6 7.1 6.1 69 2.6 WNW 19 22 10 12 975.4 - 0.0
18/02:30am 11.5 6.8 6.0 69 2.6 WNW 20 28 11 15 975.5 - 0.0
18/02:20am 11.3 6.8 6.0 70 2.5 WNW 19 22 10 12 975.7 - 0.0
18/02:10am 11.1 7.3 6.0 71 2.4 W 15 17 8 9 975.8 - 0.0
18/02:00am 11.0 7.3 6.2 72 2.3 WNW 15 17 8 9 976.0 - 0.0
18/01:50am 10.8 7.1 6.3 74 2.1 WNW 15 17 8 9 976.1 - 0.0
18/01:40am 10.7 6.7 6.6 76 2.0 WNW 17 17 9 9 976.2 - 0.0
18/01:30am 10.7 7.1 6.6 76 2.0 WNW 15 17 8 9 976.1 - 0.0
18/01:20am 10.6 6.9 6.4 75 2.0 WNW 15 17 8 9 976.4 - 0.0
18/01:10am 10.6 7.3 6.6 76 1.9 WNW 13 17 7 9 976.6 - 0.0
18/01:00am 10.6 7.3 6.5 76 2.0 WNW 13 15 7 8 976.7 - 0.0
18/12:50am 10.4 6.4 6.5 77 1.9 NW 17 19 9 10 976.9 - 0.0
18/12:40am 10.2 5.8 6.7 79 1.7 NW 19 20 10 11 976.9 - 0.0
18/12:30am 10.1 5.6 6.9 80 1.5 NW 20 24 11 13 976.9 - 0.0
18/12:20am 10.0 5.1 6.9 81 1.5 NW 22 24 12 13 977.1 - 0.0
18/12:10am 9.8 4.6 7.1 83 1.3 NW 24 26 13 14 977.2 - 0.0
18/12:00am 9.8 4.9 7.1 83 1.3 NW 22 28 12 15 977.3 - 0.0
 
Date/Time
EST
Temp
°C
App
Temp
°C
Dew
Point
°C
Rel
Hum
%
Delta-T
°C
Wind Press
QNH
hPa
Press
MSL
hPa
Rain since
9am
mm
Dir  Spd
km/h
Gust
km/h
Spd
kts
Gust
kts
17/11:50pm 9.8 5.4 6.7 81 1.5 WNW 19 22 10 12 977.4 - 0.0
17/11:40pm 9.9 4.2 6.8 81 1.5 WNW 26 28 14 15 977.3 - 0.0
17/11:30pm 10.2 3.7 6.6 78 1.7 WNW 30 33 16 18 977.8 - 0.0
17/11:20pm 10.3 3.4 6.5 77 1.8 WNW 32 35 17 19 978.0 - 0.0
17/11:10pm 10.4 5.7 6.2 75 2.0 NW 20 26 11 14 978.0 - 0.0
17/11:00pm 10.6 5.1 6.0 73 2.2 WNW 24 33 13 18 978.2 - 0.0
17/10:50pm 10.5 5.4 5.9 73 2.2 WNW 22 32 12 17 978.2 - 0.0
17/10:40pm 10.2 6.0 5.9 74 2.0 WNW 17 19 9 10 978.6 - 0.0
17/10:30pm 9.8 6.7 5.7 75 1.9 WNW 11 15 6 8 978.9 - 0.0
17/10:20pm 9.5 7.1 5.4 75 1.9 WSW 7 9 4 5 978.8 - 0.0
17/10:10pm 9.4 7.2 5.3 75 1.9 WSW 6 11 3 6 979.0 - 0.0
17/10:00pm 9.3 6.2 5.5 77 1.7 W 11 17 6 9 979.2 - 0.0
17/09:50pm 9.3 6.2 5.6 78 1.7 W 11 13 6 7 979.5 - 0.0
17/09:40pm 9.5 6.4 5.4 75 1.9 W 11 13 6 7 979.1 - 0.0
17/09:30pm 9.6 6.5 5.6 76 1.8 W 11 15 6 8 979.3 - 0.0
17/09:20pm 9.9 6.3 5.2 72 2.2 W 13 17 7 9 979.2 - 0.0
17/09:10pm 9.9 6.7 5.2 72 2.2 W 11 15 6 8 979.4 - 0.0
17/09:00pm 9.8 6.6 5.2 73 2.1 W 11 15 6 8 979.4 - 0.0
17/08:50pm 9.8 6.3 5.3 73 2.1 W 13 15 7 8 979.4 - 0.0
17/08:40pm 9.7 6.2 5.6 75 1.9 W 13 15 7 8 979.6 - 0.0
17/08:30pm 9.8 7.2 5.9 77 1.8 WNW 9 13 5 7 979.9 - 0.0
17/08:20pm 10.0 6.9 5.4 73 2.1 WNW 11 17 6 9 979.9 - 0.0
17/08:10pm 9.9 6.3 5.1 72 2.2 W 13 17 7 9 979.8 - 0.0
17/08:00pm 9.9 6.7 5.2 72 2.2 W 11 15 6 8 979.9 - 0.0
17/07:50pm 9.9 6.8 5.4 73 2.1 WSW 11 13 6 7 980.0 - 0.0
17/07:40pm 9.9 6.7 5.2 72 2.2 W 11 13 6 7 979.8 - 0.0
17/07:30pm 9.9 7.1 5.2 72 2.2 W 9 13 5 7 980.1 - 0.0
17/07:20pm 10.0 7.3 5.5 73 2.1 W 9 13 5 7 980.3 - 0.0
17/07:10pm 10.1 6.2 5.4 72 2.2 W 15 17 8 9 980.6 - 0.0
17/07:00pm 10.1 7.0 5.5 73 2.1 W 11 17 6 9 980.6 - 0.0
17/06:50pm 10.0 6.9 5.7 74 2.0 NW 11 13 6 7 980.5 - 0.0
17/06:40pm 9.9 5.8 6.0 77 1.8 NNW 17 20 9 11 980.6 - 0.0
17/06:30pm 9.9 4.4 5.9 76 1.9 N 24 26 13 14 980.7 - 0.0
17/06:20pm 9.9 4.8 6.1 77 1.8 N 22 26 12 14 980.6 - 0.0
17/06:10pm 10.0 4.9 6.2 77 1.8 NNW 22 28 12 15 980.5 - 0.0
17/06:00pm 10.1 4.6 6.0 76 1.9 NNW 24 26 13 14 980.6 - 0.0
17/05:50pm 10.0 4.9 6.2 77 1.8 NNW 22 28 12 15 980.5 - 0.0
17/05:40pm 10.1 6.5 6.6 79 1.7 NNW 15 17 8 9 980.5 - 0.0
17/05:30pm 10.4 6.0 6.5 77 1.9 NW 19 20 10 11 980.4 - 0.0
17/05:20pm 10.5 7.2 6.6 77 1.9 NW 13 19 7 10 980.3 - 0.0
17/05:10pm 10.6 8.5 6.6 76 1.9 WNW 7 13 4 7 980.3 - 0.0
17/05:00pm 10.7 8.8 6.7 76 1.9 WNW 6 9 3 5 980.6 - 0.0
17/04:50pm 10.9 9.0 6.7 75 2.0 WSW 6 11 3 6 980.7 - 0.0
17/04:40pm 11.1 9.5 6.5 73 2.2 SSW 4 9 2 5 980.8 - 0.0
17/04:30pm 11.2 9.2 6.3 72 2.3 W 6 9 3 5 981.0 - 0.0
17/04:20pm 11.1 8.9 6.3 72 2.3 SW 7 11 4 6 980.9 - 0.0
17/04:10pm 11.1 8.7 6.8 75 2.1 SW 9 13 5 7 980.8 - 0.0
17/04:00pm 11.3 8.5 6.9 74 2.1 WSW 11 15 6 8 981.0 - 0.0
17/03:50pm 11.4 8.2 6.9 74 2.2 W 13 17 7 9 981.1 - 0.0
17/03:40pm 11.6 8.9 7.4 75 2.1 WNW 11 17 6 9 981.1 - 0.0
17/03:30pm 12.1 9.8 7.3 72 2.3 WNW 9 13 5 7 981.2 - 0.0
17/03:20pm 12.3 10.3 7.2 71 2.5 W 7 9 4 5 981.2 - 0.0
17/03:10pm 12.4 10.7 7.4 71 2.5 W 6 7 3 4 981.3 - 0.0
17/03:00pm 12.5 9.9 7.8 73 2.3 NW 11 15 6 8 981.4 - 0.0
17/02:50pm 13.0 9.1 7.1 67 2.9 NW 17 19 9 10 981.6 - 0.0
17/02:40pm 12.8 8.4 7.2 69 2.7 NW 20 22 11 12 981.8 - 0.0
17/02:30pm 13.6 9.5 8.0 69 2.8 NW 19 22 10 12 981.7 - 0.0
17/02:20pm 14.3 10.2 7.9 65 3.2 NNW 19 22 10 12 981.8 - 0.0
17/02:10pm 14.6 10.9 7.9 64 3.4 NNW 17 19 9 10 981.8 - 0.0
17/02:00pm 14.5 10.5 8.1 65 3.2 NNW 19 20 10 11 981.9 - 0.0
17/01:50pm 14.8 10.6 7.4 61 3.7 NNW 19 22 10 12 982.0 - 0.0
17/01:40pm 14.7 10.0 7.9 63 3.4 NNW 22 26 12 14 982.1 - 0.0
17/01:30pm 14.2 9.6 8.1 66 3.1 NNW 22 24 12 13 982.3 - 0.0
17/01:20pm 14.3 10.0 7.9 65 3.2 NNW 20 22 11 12 982.6 - 0.0
17/01:10pm 14.9 11.0 8.6 66 3.2 NNW 19 20 10 11 982.8 - 0.0
17/01:00pm 14.9 13.0 8.9 67 3.1 N 9 13 5 7 982.8 - 0.0
17/12:50pm 14.4 11.9 9.6 73 2.5 N 13 17 7 9 983.2 - 0.0
17/12:40pm 14.1 11.4 9.1 72 2.6 NNW 13 15 7 8 983.6 - 0.0
17/12:30pm 13.4 11.5 9.1 75 2.2 NW 9 13 5 7 983.8 - 0.0
17/12:20pm 13.3 11.9 8.9 74 2.2 WNW 6 9 3 5 984.0 - 0.0
17/12:10pm 13.6 13.0 9.0 74 2.4 W 2 4 1 2 984.3 - 0.0
17/12:00pm 13.8 13.2 8.9 72 2.5 W 2 6 1 3 984.5 - 0.0
17/11:50am 13.0 12.8 9.1 77 2.0 CALM 0 0 0 0 984.6 - 0.0
17/11:40am 12.8 12.5 8.8 76 2.0 CALM 0 2 0 1 984.8 - 0.0
17/11:30am 13.0 12.8 9.2 78 1.9 CALM 0 4 0 2 984.9 - 0.0
17/11:20am 12.8 11.8 8.9 77 2.0 ESE 4 6 2 3 985.0 - 0.0
17/11:10am 12.2 11.3 9.4 83 1.4 ESE 4 9 2 5 985.2 - 0.0
17/11:00am 11.1 10.6 9.4 89 0.9 E 2 7 1 4 985.3 - 0.0
17/10:50am 10.8 9.9 9.3 90 0.8 SSE 4 6 2 3 985.5 - 0.0
17/10:40am 10.3 9.8 9.5 95 0.4 WSW 2 6 1 3 985.5 - 0.0
17/10:30am 9.9 9.0 9.3 96 0.3 SE 4 7 2 4 985.6 - 0.0
17/10:20am 9.7 9.2 9.3 97 0.2 SW 2 6 1 3 985.8 - 0.0
17/10:10am 8.6 8.2 8.2 97 0.2 CALM 0 2 0 1 985.9 - 0.0
17/10:00am 8.2 7.7 7.9 98 0.1 CALM 0 4 0 2 985.9 - 0.0
17/09:50am 8.1 7.6 7.7 97 0.2 CALM 0 4 0 2 985.9 - 0.0
17/09:40am 7.4 6.7 7.0 97 0.2 CALM 0 4 0 2 986.1 - 0.0
17/09:30am 6.7 5.5 6.4 98 0.1 SE 2 4 1 2 986.2 - 0.0
17/09:20am 6.2 4.9 5.9 98 0.1 NE 2 4 1 2 986.2 - 0.0
17/09:10am 6.0 5.0 5.8 99 0.1 CALM 0 4 0 2 986.2 - 0.0
17/09:00am 5.6 4.2 5.3 98 0.1 ENE 2 4 1 2 986.2 - 0.2
17/08:50am 5.0 3.1 4.7 98 0.1 NE 4 7 2 4 986.3 - 0.2
17/08:40am 4.7 2.3 4.4 98 0.1 ENE 6 7 3 4 986.3 - 0.2
17/08:30am 4.3 1.9 4.1 99 0.1 ENE 6 7 3 4 986.4 - 0.2
17/08:20am 4.1 2.4 3.9 99 0.1 NE 2 4 1 2 986.4 - 0.2
17/08:10am 3.5 1.7 3.2 98 0.1 SSE 2 6 1 3 986.5 - 0.2
17/08:00am 2.9 1.0 2.7 99 0.1 SW 2 4 1 2 986.7 - 0.2
17/07:50am 2.4 0.8 2.2 99 0.1 CALM 0 0 0 0 986.7 - 0.2
17/07:40am 2.1 0.4 1.8 98 0.1 CALM 0 0 0 0 986.5 - 0.2
17/07:30am 1.8 -0.3 1.6 99 0.1 S 2 4 1 2 986.5 - 0.2
17/07:20am 1.6 -0.9 1.4 99 0.1 S 4 6 2 3 986.4 - 0.2
17/07:10am 1.4 -0.8 1.1 98 0.1 NW 2 6 1 3 986.4 - 0.2
17/07:00am 0.9 -1.4 0.7 99 0.1 WNW 2 6 1 3 986.3 - 0.2
17/06:50am 0.9 -1.0 0.6 98 0.1 CALM 0 4 0 2 986.2 - 0.2
17/06:40am 0.9 -1.0 0.7 99 0.1 CALM 0 4 0 2 986.0 - 0.2
17/06:30am 1.0 -0.9 0.7 98 0.1 CALM 0 4 0 2 986.0 - 0.2
17/06:20am 1.0 -1.6 0.8 99 0.1 WSW 4 6 2 3 985.9 - 0.2
17/06:10am 1.0 -2.0 0.7 98 0.1 SE 6 6 3 3 985.7 - 0.2
17/06:00am 1.1 -1.9 0.8 98 0.1 ENE 6 7 3 4 985.6 - 0.2
17/05:50am 1.2 -1.8 0.9 98 0.1 NE 6 6 3 3 985.5 - 0.2
17/05:40am 1.0 -1.3 0.7 98 0.1 NE 2 4 1 2 985.4 - 0.2
17/05:30am 1.2 -1.0 0.9 98 0.1 NE 2 4 1 2 985.5 - 0.2
17/05:20am 1.7 -0.1 1.4 98 0.1 CALM 0 4 0 2 985.3 - 0.2
17/05:10am 1.9 -0.2 1.6 98 0.1 S 2 4 1 2 985.2 - 0.2
17/05:00am 2.0 -0.5 1.8 99 0.1 S 4 6 2 3 985.3 - 0.2
17/04:50am 1.9 -1.0 1.6 98 0.1 S 6 6 3 3 985.3 - 0.2
17/04:40am 1.5 -1.4 1.2 98 0.1 SE 6 6 3 3 985.2 - 0.2
17/04:30am 1.4 -0.4 1.0 97 0.2 CALM 0 4 0 2 984.9 - 0.2
17/04:20am 1.7 -0.8 1.4 98 0.1 NE 4 6 2 3 984.8 - 0.2
17/04:10am 2.2 -0.3 1.8 97 0.2 NE 4 6 2 3 984.6 - 0.2
17/04:00am 2.2 0.1 1.8 97 0.2 NE 2 4 1 2 984.4 - 0.2
17/03:50am 3.0 0.1 2.7 98 0.1 SSW 7 9 4 5 984.1 - 0.2
17/03:40am 2.6 -0.4 2.3 98 0.1 SSW 7 11 4 6 984.1 - 0.2
17/03:30am 2.4 -0.4 2.0 97 0.2 SSW 6 6 3 3 984.1 - 0.2
17/03:20am 2.9 1.3 2.4 96 0.2 CALM 0 2 0 1 984.3 - 0.2
17/03:10am 3.2 0.9 2.8 97 0.2 E 4 4 2 2 984.2 - 0.2
17/03:00am 3.1 1.2 2.6 96 0.2 ENE 2 4 1 2 984.2 - 0.2
17/02:50am 3.1 1.5 2.5 96 0.2 CALM 0 2 0 1 984.1 - 0.2
17/02:40am 3.4 1.8 2.7 95 0.3 CALM 0 4 0 2 984.3 - 0.2
17/02:30am 4.0 1.4 3.3 95 0.3 SE 6 7 3 4 984.1 - 0.2
17/02:20am 4.0 2.2 3.4 96 0.3 SSW 2 4 1 2 983.9 - 0.2
17/02:10am 4.1 2.7 3.4 95 0.3 CALM 0 2 0 1 983.9 - 0.2
17/02:00am 4.2 2.0 3.5 95 0.3 S 4 6 2 3 983.7 - 0.2
17/01:50am 5.0 3.4 4.3 95 0.3 E 2 4 1 2 983.7 - 0.2
17/01:40am 5.3 4.1 4.8 97 0.2 CALM 0 0 0 0 984.0 - 0.2
17/01:30am 4.8 2.4 4.2 96 0.3 NE 6 7 3 4 984.0 - 0.2
17/01:20am 4.7 2.7 4.2 97 0.2 W 4 6 2 3 984.1 - 0.2
17/01:10am 4.8 2.8 4.2 96 0.3 S 4 11 2 6 984.1 - 0.2
17/01:00am 4.2 1.7 3.5 95 0.3 E 6 11 3 6 984.0 - 0.2
17/12:50am 4.8 2.7 4.1 95 0.3 SSE 4 6 2 3 983.8 - 0.2
17/12:40am 5.3 3.4 4.8 97 0.2 NW 4 6 2 3 983.8 - 0.2
17/12:30am 4.5 2.3 3.6 94 0.4 WNW 4 7 2 4 983.8 - 0.2
17/12:20am 5.4 3.5 4.7 95 0.3 S 4 6 2 3 983.7 - 0.2
17/12:10am 5.1 2.7 4.4 95 0.3 S 6 7 3 4 983.8 - 0.2
17/12:00am 4.9 2.3 4.0 94 0.4 SW 7 7 4 4 983.8 - 0.2
 
Date/Time
EST
Temp
°C
App
Temp
°C
Dew
Point
°C
Rel
Hum
%
Delta-T
°C
Wind Press
QNH
hPa
Press
MSL
hPa
Rain since
9am
mm
Dir  Spd
km/h
Gust
km/h
Spd
kts
Gust
kts
16/11:50pm 5.5 3.1 4.5 93 0.4 SSW 6 7 3 4 983.9 - 0.2
16/11:40pm 5.5 3.2 4.6 94 0.4 SSW 6 7 3 4 983.9 - 0.2
16/11:30pm 5.6 4.0 4.6 93 0.4 WSW 2 6 1 3 983.8 - 0.2
16/11:20pm 6.1 4.9 4.7 91 0.6 CALM 0 4 0 2 984.0 - 0.2
16/11:10pm 6.6 5.2 5.3 91 0.6 ESE 2 6 1 3 983.8 - 0.2
16/11:00pm 7.3 5.5 5.5 88 0.8 ENE 4 6 2 3 983.6 - 0.2
16/10:50pm 7.8 6.1 5.8 87 0.9 NE 4 6 2 3 983.7 - 0.2
16/10:40pm 7.3 5.6 5.8 90 0.7 S 4 4 2 2 983.4 - 0.2
16/10:30pm 8.0 6.3 5.7 85 1.1 SSW 4 6 2 3 983.5 - 0.2
16/10:20pm 8.8 6.7 5.9 82 1.3 SSE 6 7 3 4 983.6 - 0.2
16/10:10pm 9.1 7.2 6.5 84 1.2 SSW 6 9 3 5 983.7 - 0.2
16/10:00pm 10.0 8.1 6.6 79 1.6 NNW 6 7 3 4 983.7 - 0.2
16/09:50pm 9.8 7.4 6.9 82 1.4 NW 9 11 5 6 983.8 - 0.2
16/09:40pm 10.3 7.9 7.1 80 1.5 NNW 9 11 5 6 983.7 - 0.2
16/09:30pm 10.4 8.0 7.0 79 1.6 NW 9 13 5 7 983.7 - 0.2
16/09:20pm 10.2 6.6 6.8 79 1.6 NNW 15 17 8 9 983.6 - 0.2
16/09:10pm 9.8 7.0 6.9 82 1.4 NNW 11 15 6 8 983.3 - 0.2
16/09:00pm 9.9 6.7 7.0 82 1.4 NNW 13 15 7 8 983.1 - 0.2
16/08:50pm 9.6 6.9 7.2 85 1.2 NNW 11 15 6 8 983.1 - 0.2
16/08:40pm 10.0 7.7 7.3 83 1.3 NNW 9 15 5 8 982.8 - 0.2
16/08:30pm 10.5 8.5 7.1 79 1.6 NNW 7 9 4 5 982.9 - 0.2
16/08:20pm 10.2 7.8 7.0 80 1.5 NNW 9 11 5 6 982.7 - 0.2
16/08:10pm 9.4 7.3 6.8 84 1.2 NW 7 7 4 4 982.7 - 0.2
16/08:00pm 8.8 6.7 6.6 86 1.0 NW 7 7 4 4 982.5 - 0.2
16/07:50pm 9.1 7.1 6.9 86 1.0 W 7 9 4 5 982.3 - 0.2
16/07:40pm 8.4 6.5 6.7 89 0.8 W 6 7 3 4 981.8 - 0.2
16/07:30pm 8.1 6.6 6.6 90 0.7 SW 4 6 2 3 981.6 - 0.2
16/07:20pm 8.1 6.6 6.6 90 0.7 WSW 4 4 2 2 981.3 - 0.2
16/07:10pm 8.5 7.7 6.6 88 0.9 CALM 0 2 0 1 981.1 - 0.2
16/07:00pm 9.0 8.3 7.1 88 0.9 CALM 0 4 0 2 980.7 - 0.2
16/06:50pm 9.4 8.7 7.1 85 1.1 CALM 0 2 0 1 980.6 - 0.2
16/06:40pm 9.8 8.7 7.1 83 1.3 NNW 2 6 1 3 980.4 - 0.2
16/06:30pm 9.4 8.8 7.4 87 1.0 CALM 0 2 0 1 980.3 - 0.2
16/06:20pm 9.5 8.9 7.4 87 1.0 CALM 0 2 0 1 980.1 - 0.2
16/05:40pm 11.1 9.4 7.6 79 1.7 SW 6 7 3 4 979.5 - 0.2
16/05:30pm 11.4 9.7 7.6 77 1.9 W 6 7 3 4 979.4 - 0.2
16/05:20pm 11.2 8.9 7.4 77 1.9 NW 9 9 5 5 978.9 - 0.2
16/05:10pm 11.5 9.7 8.1 79 1.7 N 7 9 4 5 978.6 - 0.2
16/05:00pm 12.6 10.8 7.9 73 2.3 W 7 9 4 5 978.5 - 0.2
16/04:50pm 12.7 10.6 6.6 66 3.0 WSW 7 13 4 7 978.4 - 0.2
16/04:40pm 12.8 10.8 7.3 69 2.7 WSW 7 15 4 8 978.3 - 0.2
16/04:30pm 13.0 11.1 7.7 70 2.6 W 7 9 4 5 978.3 - 0.2
16/04:20pm 13.2 11.3 7.5 68 2.8 WSW 7 9 4 5 978.1 - 0.2
16/04:00pm 13.2 11.2 7.3 67 2.9 WSW 7 11 4 6 977.8 - 0.2
16/03:50pm 13.3 11.4 7.7 69 2.8 WSW 7 9 4 5 977.8 - 0.2
16/03:40pm 13.4 10.7 7.5 67 2.9 WSW 11 13 6 7 977.8 - 0.2
16/03:30pm 13.5 10.5 7.5 67 3.0 WSW 13 20 7 11 977.6 - 0.2
16/03:20pm 13.7 12.0 8.3 70 2.7 WNW 7 9 4 5 977.4 - 0.2
16/03:00pm 14.3 12.7 7.8 65 3.3 W 6 9 3 5 977.1 - 0.2
16/02:50pm 13.3 11.6 8.4 72 2.5 W 7 11 4 6 977.3 - 0.2
16/02:40pm 13.0 10.5 8.4 73 2.3 W 11 15 6 8 977.1 - 0.2
16/02:30pm 12.5 9.0 8.8 78 1.9 W 17 20 9 11 977.0 - 0.2
16/02:10pm 14.0 11.6 6.9 62 3.5 W 9 11 5 6 976.6 - 0.0
16/02:00pm 13.6 9.9 6.5 62 3.5 W 15 19 8 10 976.4 - 0.0
16/01:50pm 13.3 9.0 6.9 65 3.1 W 19 24 10 13 976.3 - 0.0
16/01:40pm 13.7 9.8 7.0 64 3.3 W 17 22 9 12 976.2 - 0.0
16/01:30pm 14.3 10.0 7.2 62 3.5 W 19 20 10 11 975.9 - 0.0
16/01:00pm 13.9 9.6 7.1 63 3.4 W 19 22 10 12 975.6 - 0.0
16/12:50pm 13.8 9.5 7.1 64 3.3 W 19 22 10 12 975.6 - 0.0
16/12:40pm 14.2 9.9 6.9 61 3.6 W 19 20 10 11 975.5 - 0.0
16/12:20pm 13.9 9.3 6.7 62 3.5 W 20 22 11 12 975.3 - 0.0
16/12:10pm 14.0 10.1 7.1 63 3.4 W 17 20 9 11 975.4 - 0.0
16/12:00pm 13.8 10.3 7.1 64 3.3 W 15 20 8 11 975.3 - 0.0
16/11:50am 14.0 10.6 7.5 65 3.2 W 15 19 8 10 975.5 - 0.0
16/11:40am 13.8 10.7 7.1 64 3.3 WNW 13 17 7 9 975.6 - 0.0
16/11:30am 13.4 9.1 6.9 65 3.2 W 19 22 10 12 975.7 - 0.0
16/11:20am 12.9 8.4 6.9 67 2.9 W 20 22 11 12 975.5 - 0.0
16/11:10am 12.4 7.8 6.7 68 2.8 W 20 24 11 13 975.6 - 0.0
16/11:00am 12.6 8.7 7.2 69 2.6 W 17 20 9 11 975.6 - 0.0
16/10:50am 13.2 10.0 6.9 65 3.1 W 13 17 7 9 975.5 - 0.0
16/10:40am 12.8 9.5 6.6 66 3.0 W 13 19 7 10 975.3 - 0.0
16/10:30am 12.4 8.9 7.3 71 2.5 W 15 17 8 9 975.2 - 0.0
16/10:20am 11.7 7.7 6.6 71 2.5 W 17 19 9 10 975.1 - 0.0
16/10:10am 11.5 7.5 6.7 72 2.3 W 17 19 9 10 975.0 - 0.0
16/10:00am 11.1 7.1 6.5 73 2.2 W 17 20 9 11 974.9 - 0.0
16/09:50am 11.2 7.2 6.7 74 2.2 W 17 20 9 11 974.8 - 0.0
16/09:40am 11.1 7.0 6.4 73 2.2 W 17 20 9 11 974.6 - 0.0
16/09:30am 10.8 7.5 6.4 74 2.1 W 13 17 7 9 974.6 - 0.0
16/09:20am 9.7 6.4 6.4 80 1.6 W 13 15 7 8 974.5 - 0.0
16/09:10am 9.9 7.0 6.4 79 1.7 W 11 13 6 7 974.4 - 0.0
16/08:50am 9.9 7.0 6.5 79 1.6 W 11 11 6 6 974.1 - 6.6
16/08:30am 9.4 6.9 6.7 83 1.3 W 9 9 5 5 973.8 - 6.6
16/08:20am 9.2 6.3 6.7 84 1.2 W 11 13 6 7 973.6 - 6.6
16/07:50am 8.0 5.0 5.9 86 1.0 WNW 11 13 6 7 973.1 - 6.6
16/07:20am 7.6 4.2 5.7 88 0.9 WNW 13 15 7 8 972.2 - 6.6
16/07:00am 7.6 5.3 5.7 88 0.9 WNW 7 11 4 6 971.7 - 6.6
16/06:50am 8.6 5.2 5.7 82 1.3 W 13 17 7 9 971.6 - 6.6
16/06:30am 7.1 4.7 5.4 89 0.8 NW 7 9 4 5 971.2 - 6.6
16/06:10am 7.7 5.4 4.8 82 1.3 WSW 6 7 3 4 970.9 - 6.6
16/06:00am 6.9 5.4 5.2 89 0.8 W 2 4 1 2 970.8 - 6.6
16/05:50am 7.3 4.6 5.4 88 0.9 WNW 9 11 5 6 970.6 - 6.6
16/05:40am 7.8 5.5 5.5 85 1.0 WNW 7 9 4 5 970.4 - 6.6
16/05:10am 8.6 5.4 5.1 79 1.6 NW 11 17 6 9 969.9 - 6.6
16/05:00am 8.0 5.8 5.2 82 1.3 NW 6 9 3 5 969.8 - 6.6
16/04:50am 7.8 4.7 5.4 85 1.1 NW 11 13 6 7 969.8 - 6.6
16/04:30am 7.1 4.8 4.9 86 1.0 NW 6 7 3 4 969.5 - 6.6
16/04:20am 7.7 5.5 5.2 84 1.1 WNW 6 7 3 4 969.3 - 6.6
16/04:10am 8.2 5.9 5.5 83 1.2 WNW 7 11 4 6 969.2 - 6.6
16/04:00am 8.6 6.0 5.9 83 1.2 WNW 9 11 5 6 969.0 - 6.6
16/03:50am 8.6 6.0 5.9 83 1.2 WNW 9 11 5 6 968.9 - 6.6
16/03:40am 8.5 5.9 6.1 85 1.1 WNW 9 11 5 6 968.8 - 6.6
16/03:30am 8.5 5.9 6.1 85 1.1 WNW 9 11 5 6 968.8 - 6.6
16/03:20am 8.6 6.4 6.2 85 1.1 W 7 9 4 5 968.8 - 6.6
16/03:00am 8.7 6.2 6.6 87 1.0 W 9 11 5 6 968.7 - 6.6
16/02:50am 8.6 6.5 6.6 87 0.9 W 7 11 4 6 968.8 - 6.6
16/02:40am 8.6 6.5 6.7 88 0.9 WSW 7 9 4 5 968.8 - 6.6
16/02:30am 8.6 5.7 6.5 87 1.0 W 11 11 6 6 968.7 - 6.6
16/02:20am 8.4 5.5 6.6 88 0.8 W 11 13 6 7 968.5 - 6.6
16/02:10am 8.4 5.9 6.5 88 0.9 W 9 11 5 6 968.3 - 6.6
16/02:00am 8.4 5.5 6.4 87 0.9 WNW 11 13 6 7 968.4 - 6.6

Other formats

Comma delimited format used in spreadsheet applications
http://www.bom.gov.au/fwo/IDT60801/IDT60801.99954.axf

JavaScript Object Notation format (JSON) in row-major order
http://www.bom.gov.au/fwo/IDT60801/IDT60801.99954.json

Data quality

Most of these data are generated automatically and are frequently updated. Quality checks on data are not normally performed. It is possible for incorrect values to appear. Refer to information at About Latest Weather Observations and please check the disclaimer before using these data.